sensor_id;sensor_type;location;lat;lon;timestamp;temperature;humidity
463;DHT22;218;51.902;9.542;2023-08-06T05:16:21;18.60;1.00
463;DHT22;218;51.902;9.542;2023-08-06T05:23:44;18.90;1.00
463;DHT22;218;51.902;9.542;2023-08-06T05:26:11;18.60;1.00
463;DHT22;218;51.902;9.542;2023-08-06T05:33:35;19.20;1.00
463;DHT22;218;51.902;9.542;2023-08-06T05:36:01;18.80;1.00
463;DHT22;218;51.902;9.542;2023-08-06T05:38:30;19.00;1.00
463;DHT22;218;51.902;9.542;2023-08-06T05:40:58;18.70;1.00
463;DHT22;218;51.902;9.542;2023-08-06T05:43:25;18.60;1.00
463;DHT22;218;51.902;9.542;2023-08-06T05:50:48;18.80;1.00
463;DHT22;218;51.902;9.542;2023-08-06T05:58:10;19.20;1.00
463;DHT22;218;51.902;9.542;2023-08-06T06:03:04;19.20;1.00
463;DHT22;218;51.902;9.542;2023-08-06T06:07:58;19.10;1.00
463;DHT22;218;51.902;9.542;2023-08-06T06:17:49;18.90;1.00
463;DHT22;218;51.902;9.542;2023-08-06T06:22:43;19.90;1.00
463;DHT22;218;51.902;9.542;2023-08-06T06:25:10;19.40;1.00
463;DHT22;218;51.902;9.542;2023-08-06T06:32:33;20.00;1.00
463;DHT22;218;51.902;9.542;2023-08-06T06:44:48;20.00;1.00
463;DHT22;218;51.902;9.542;2023-08-06T06:52:11;20.10;1.00
463;DHT22;218;51.902;9.542;2023-08-06T07:04:27;20.50;1.00
463;DHT22;218;51.902;9.542;2023-08-06T07:06:55;20.50;1.00
463;DHT22;218;51.902;9.542;2023-08-06T07:09:22;20.70;1.00
463;DHT22;218;51.902;9.542;2023-08-06T07:11:49;20.70;1.00
463;DHT22;218;51.902;9.542;2023-08-06T07:14:16;20.80;1.00
463;DHT22;218;51.902;9.542;2023-08-06T07:16:43;20.70;1.00
463;DHT22;218;51.902;9.542;2023-08-06T07:19:10;21.00;1.00
463;DHT22;218;51.902;9.542;2023-08-06T07:21:37;21.00;1.00
463;DHT22;218;51.902;9.542;2023-08-06T07:24:05;21.00;1.00
463;DHT22;218;51.902;9.542;2023-08-06T07:28:59;21.10;1.00
463;DHT22;218;51.902;9.542;2023-08-06T07:31:26;21.30;1.00
463;DHT22;218;51.902;9.542;2023-08-06T07:33:53;21.20;1.00
463;DHT22;218;51.902;9.542;2023-08-06T07:36:20;21.30;1.00
463;DHT22;218;51.902;9.542;2023-08-06T07:41:22;21.70;1.00
463;DHT22;218;51.902;9.542;2023-08-06T07:46:16;21.80;1.00
463;DHT22;218;51.902;9.542;2023-08-06T07:51:10;22.00;1.00
463;DHT22;218;51.902;9.542;2023-08-06T07:53:37;22.20;1.00
463;DHT22;218;51.902;9.542;2023-08-06T07:56:04;22.40;1.00
463;DHT22;218;51.902;9.542;2023-08-06T08:01:00;22.60;1.00
463;DHT22;218;51.902;9.542;2023-08-06T08:03:26;22.60;1.00
463;DHT22;218;51.902;9.542;2023-08-06T08:05:55;22.80;1.00
463;DHT22;218;51.902;9.542;2023-08-06T08:08:24;22.90;1.00
463;DHT22;218;51.902;9.542;2023-08-06T08:10:51;23.00;1.00
463;DHT22;218;51.902;9.542;2023-08-06T08:13:18;23.10;1.00
463;DHT22;218;51.902;9.542;2023-08-06T08:15:46;23.20;1.00
463;DHT22;218;51.902;9.542;2023-08-06T08:18:13;23.30;1.00
463;DHT22;218;51.902;9.542;2023-08-06T08:20:39;23.40;1.00
463;DHT22;218;51.902;9.542;2023-08-06T08:23:06;23.60;1.00
463;DHT22;218;51.902;9.542;2023-08-06T08:25:33;23.60;1.00
463;DHT22;218;51.902;9.542;2023-08-06T08:28:00;23.70;1.00
463;DHT22;218;51.902;9.542;2023-08-06T08:30:27;23.80;1.00
463;DHT22;218;51.902;9.542;2023-08-06T08:32:55;23.90;1.00
463;DHT22;218;51.902;9.542;2023-08-06T08:35:22;23.80;1.00
463;DHT22;218;51.902;9.542;2023-08-06T08:37:49;23.90;1.00
463;DHT22;218;51.902;9.542;2023-08-06T08:40:17;23.90;1.00
463;DHT22;218;51.902;9.542;2023-08-06T08:42:44;23.90;1.00
463;DHT22;218;51.902;9.542;2023-08-06T08:45:12;24.00;1.00
463;DHT22;218;51.902;9.542;2023-08-06T08:47:40;24.00;1.00
463;DHT22;218;51.902;9.542;2023-08-06T08:50:10;24.00;1.00
463;DHT22;218;51.902;9.542;2023-08-06T08:52:39;24.00;1.00
463;DHT22;218;51.902;9.542;2023-08-06T08:55:08;24.00;1.00
463;DHT22;218;51.902;9.542;2023-08-06T08:57:35;24.10;1.00
463;DHT22;218;51.902;9.542;2023-08-06T09:00:02;24.10;1.00
463;DHT22;218;51.902;9.542;2023-08-06T09:02:30;24.10;1.00
463;DHT22;218;51.902;9.542;2023-08-06T09:05:00;24.00;1.00
463;DHT22;218;51.902;9.542;2023-08-06T09:07:33;24.10;1.00
463;DHT22;218;51.902;9.542;2023-08-06T10:54:54;24.90;1.00
463;DHT22;218;51.902;9.542;2023-08-06T10:57:21;26.90;1.00
463;DHT22;218;51.902;9.542;2023-08-06T10:59:48;26.90;1.00
463;DHT22;218;51.902;9.542;2023-08-06T11:02:14;27.00;1.00
463;DHT22;218;51.902;9.542;2023-08-06T11:04:43;27.00;1.00
463;DHT22;218;51.902;9.542;2023-08-06T11:07:10;27.00;1.00
463;DHT22;218;51.902;9.542;2023-08-06T11:09:37;27.10;1.00
463;DHT22;218;51.902;9.542;2023-08-06T11:12:09;27.10;1.00
463;DHT22;218;51.902;9.542;2023-08-06T11:14:36;27.10;1.00
463;DHT22;218;51.902;9.542;2023-08-06T11:17:04;27.10;1.00
463;DHT22;218;51.902;9.542;2023-08-06T11:19:31;27.20;1.00
463;DHT22;218;51.902;9.542;2023-08-06T11:22:00;27.30;1.00
463;DHT22;218;51.902;9.542;2023-08-06T11:24:27;27.30;1.00
463;DHT22;218;51.902;9.542;2023-08-06T11:26:54;27.40;1.00
463;DHT22;218;51.902;9.542;2023-08-06T11:29:21;27.40;1.00
463;DHT22;218;51.902;9.542;2023-08-06T11:31:49;27.50;1.00
463;DHT22;218;51.902;9.542;2023-08-06T11:34:16;27.50;1.00
463;DHT22;218;51.902;9.542;2023-08-06T11:36:43;27.50;1.00
463;DHT22;218;51.902;9.542;2023-08-06T11:39:11;27.50;1.00
463;DHT22;218;51.902;9.542;2023-08-06T11:41:38;27.50;1.00
463;DHT22;218;51.902;9.542;2023-08-06T11:44:06;27.50;1.00
463;DHT22;218;51.902;9.542;2023-08-06T11:46:53;27.50;1.00
463;DHT22;218;51.902;9.542;2023-08-06T11:49:37;27.50;1.00
463;DHT22;218;51.902;9.542;2023-08-06T11:52:09;27.50;1.00
463;DHT22;218;51.902;9.542;2023-08-06T11:54:38;27.50;1.00
463;DHT22;218;51.902;9.542;2023-08-06T11:57:05;27.40;1.00
463;DHT22;218;51.902;9.542;2023-08-06T11:59:32;27.40;1.00
463;DHT22;218;51.902;9.542;2023-08-06T12:02:01;27.40;1.00
463;DHT22;218;51.902;9.542;2023-08-06T12:04:28;27.40;1.00
463;DHT22;218;51.902;9.542;2023-08-06T12:06:55;27.40;1.00
463;DHT22;218;51.902;9.542;2023-08-06T12:09:22;27.50;1.00
463;DHT22;218;51.902;9.542;2023-08-06T12:11:50;27.50;1.00
463;DHT22;218;51.902;9.542;2023-08-06T12:14:17;27.60;1.00
463;DHT22;218;51.902;9.542;2023-08-06T12:16:44;27.60;1.00
463;DHT22;218;51.902;9.542;2023-08-06T12:19:11;27.60;1.00
463;DHT22;218;51.902;9.542;2023-08-06T12:21:38;27.60;1.00
463;DHT22;218;51.902;9.542;2023-08-06T12:24:05;27.60;1.00
463;DHT22;218;51.902;9.542;2023-08-06T12:26:33;27.60;1.00
463;DHT22;218;51.902;9.542;2023-08-06T12:29:01;27.50;1.00
463;DHT22;218;51.902;9.542;2023-08-06T12:31:28;27.60;1.00
463;DHT22;218;51.902;9.542;2023-08-06T12:33:55;27.60;1.00
463;DHT22;218;51.902;9.542;2023-08-06T12:36:22;27.70;1.00
463;DHT22;218;51.902;9.542;2023-08-06T12:38:48;27.70;1.00
463;DHT22;218;51.902;9.542;2023-08-06T12:41:15;27.80;1.00
463;DHT22;218;51.902;9.542;2023-08-06T12:43:42;27.90;1.00
463;DHT22;218;51.902;9.542;2023-08-06T12:46:10;28.00;1.00
463;DHT22;218;51.902;9.542;2023-08-06T12:48:38;28.10;1.00
463;DHT22;218;51.902;9.542;2023-08-06T12:51:04;28.20;1.00
463;DHT22;218;51.902;9.542;2023-08-06T12:53:31;28.30;1.00
463;DHT22;218;51.902;9.542;2023-08-06T12:55:58;28.30;1.00
463;DHT22;218;51.902;9.542;2023-08-06T12:58:25;28.30;1.00
463;DHT22;218;51.902;9.542;2023-08-06T13:00:52;28.40;1.00
463;DHT22;218;51.902;9.542;2023-08-06T13:03:21;28.30;1.00
463;DHT22;218;51.902;9.542;2023-08-06T13:05:48;28.30;1.00
463;DHT22;218;51.902;9.542;2023-08-06T13:08:15;28.30;1.00
463;DHT22;218;51.902;9.542;2023-08-06T13:10:42;28.30;1.00
463;DHT22;218;51.902;9.542;2023-08-06T13:13:09;28.20;1.00
463;DHT22;218;51.902;9.542;2023-08-06T13:15:36;28.20;1.00
463;DHT22;218;51.902;9.542;2023-08-06T13:18:03;28.20;1.00
463;DHT22;218;51.902;9.542;2023-08-06T13:20:31;28.20;1.00
463;DHT22;218;51.902;9.542;2023-08-06T13:22:58;28.30;1.00
463;DHT22;218;51.902;9.542;2023-08-06T13:25:26;28.40;1.00
463;DHT22;218;51.902;9.542;2023-08-06T13:27:54;28.40;1.00
463;DHT22;218;51.902;9.542;2023-08-06T13:30:21;28.50;1.00
463;DHT22;218;51.902;9.542;2023-08-06T13:32:48;28.60;1.00
463;DHT22;218;51.902;9.542;2023-08-06T13:35:15;28.60;1.00
463;DHT22;218;51.902;9.542;2023-08-06T13:37:43;28.70;1.00
463;DHT22;218;51.902;9.542;2023-08-06T13:40:11;28.70;1.00
463;DHT22;218;51.902;9.542;2023-08-06T13:42:38;28.80;1.00
463;DHT22;218;51.902;9.542;2023-08-06T13:45:05;28.90;1.00
463;DHT22;218;51.902;9.542;2023-08-06T13:47:33;28.90;1.00
463;DHT22;218;51.902;9.542;2023-08-06T13:50:00;29.00;1.00
463;DHT22;218;51.902;9.542;2023-08-06T13:52:26;29.00;1.00
463;DHT22;218;51.902;9.542;2023-08-06T13:54:56;29.10;1.00
463;DHT22;218;51.902;9.542;2023-08-06T13:57:23;29.10;1.00
463;DHT22;218;51.902;9.542;2023-08-06T13:59:50;29.20;1.00
463;DHT22;218;51.902;9.542;2023-08-06T14:02:17;29.20;1.00
463;DHT22;218;51.902;9.542;2023-08-06T14:04:44;29.30;1.00
463;DHT22;218;51.902;9.542;2023-08-06T14:07:11;29.40;1.00
463;DHT22;218;51.902;9.542;2023-08-06T14:09:37;29.40;1.00
463;DHT22;218;51.902;9.542;2023-08-06T14:12:07;29.50;1.00
463;DHT22;218;51.902;9.542;2023-08-06T14:14:34;29.60;1.00
463;DHT22;218;51.902;9.542;2023-08-06T14:17:01;29.60;1.00
463;DHT22;218;51.902;9.542;2023-08-06T14:19:27;29.60;1.00
463;DHT22;218;51.902;9.542;2023-08-06T14:21:55;29.60;1.00
463;DHT22;218;51.902;9.542;2023-08-06T14:24:22;29.60;1.00
463;DHT22;218;51.902;9.542;2023-08-06T14:26:49;29.60;1.00
463;DHT22;218;51.902;9.542;2023-08-06T14:29:18;29.60;1.00
463;DHT22;218;51.902;9.542;2023-08-06T14:31:45;29.60;1.00
463;DHT22;218;51.902;9.542;2023-08-06T14:34:12;29.50;1.00
463;DHT22;218;51.902;9.542;2023-08-06T14:36:38;29.50;1.00
463;DHT22;218;51.902;9.542;2023-08-06T14:39:05;29.50;1.00
463;DHT22;218;51.902;9.542;2023-08-06T14:41:35;29.50;1.00
463;DHT22;218;51.902;9.542;2023-08-06T14:44:02;29.50;1.00
463;DHT22;218;51.902;9.542;2023-08-06T14:46:32;29.40;1.00
463;DHT22;218;51.902;9.542;2023-08-06T14:48:59;29.40;1.00
463;DHT22;218;51.902;9.542;2023-08-06T14:51:26;29.40;1.00
463;DHT22;218;51.902;9.542;2023-08-06T14:53:53;29.30;1.00
463;DHT22;218;51.902;9.542;2023-08-06T14:56:20;29.30;1.00
463;DHT22;218;51.902;9.542;2023-08-06T14:58:47;29.30;1.00
463;DHT22;218;51.902;9.542;2023-08-06T15:01:14;29.20;1.00
463;DHT22;218;51.902;9.542;2023-08-06T15:03:42;29.10;1.00
463;DHT22;218;51.902;9.542;2023-08-06T15:06:09;29.00;1.00
463;DHT22;218;51.902;9.542;2023-08-06T15:08:36;28.90;1.00
463;DHT22;218;51.902;9.542;2023-08-06T15:11:03;28.80;1.00
463;DHT22;218;51.902;9.542;2023-08-06T15:13:30;28.70;1.00
463;DHT22;218;51.902;9.542;2023-08-06T15:15:57;28.60;1.00
463;DHT22;218;51.902;9.542;2023-08-06T15:18:23;28.50;1.00
463;DHT22;218;51.902;9.542;2023-08-06T15:20:52;28.40;1.00
463;DHT22;218;51.902;9.542;2023-08-06T15:23:19;28.40;1.00
463;DHT22;218;51.902;9.542;2023-08-06T15:25:49;28.30;1.00
463;DHT22;218;51.902;9.542;2023-08-06T15:28:16;28.30;1.00
463;DHT22;218;51.902;9.542;2023-08-06T15:30:49;28.20;1.00
463;DHT22;218;51.902;9.542;2023-08-06T15:33:17;28.10;1.00
463;DHT22;218;51.902;9.542;2023-08-06T15:35:44;28.10;1.00
463;DHT22;218;51.902;9.542;2023-08-06T15:38:12;28.00;1.00
463;DHT22;218;51.902;9.542;2023-08-06T15:40:39;27.90;1.00
463;DHT22;218;51.902;9.542;2023-08-06T15:43:06;27.90;1.00
463;DHT22;218;51.902;9.542;2023-08-06T15:45:33;27.80;1.00
463;DHT22;218;51.902;9.542;2023-08-06T15:48:00;27.70;1.00
463;DHT22;218;51.902;9.542;2023-08-06T15:50:27;27.70;1.00
463;DHT22;218;51.902;9.542;2023-08-06T15:52:53;27.60;1.00
463;DHT22;218;51.902;9.542;2023-08-06T15:55:22;27.50;1.00
463;DHT22;218;51.902;9.542;2023-08-06T15:57:49;27.50;1.00
463;DHT22;218;51.902;9.542;2023-08-06T16:00:16;27.40;1.00
463;DHT22;218;51.902;9.542;2023-08-06T16:02:44;27.30;1.00
463;DHT22;218;51.902;9.542;2023-08-06T16:05:11;27.20;1.00
463;DHT22;218;51.902;9.542;2023-08-06T16:07:37;27.10;1.00
463;DHT22;218;51.902;9.542;2023-08-06T16:10:05;27.00;1.00
463;DHT22;218;51.902;9.542;2023-08-06T16:12:33;26.90;1.00
463;DHT22;218;51.902;9.542;2023-08-06T16:15:00;26.80;1.00
463;DHT22;218;51.902;9.542;2023-08-06T16:17:28;26.70;1.00
463;DHT22;218;51.902;9.542;2023-08-06T16:19:55;26.60;1.00
463;DHT22;218;51.902;9.542;2023-08-06T16:22:21;26.50;1.00
463;DHT22;218;51.902;9.542;2023-08-06T16:24:48;26.40;1.00
463;DHT22;218;51.902;9.542;2023-08-06T16:27:15;26.30;1.00
463;DHT22;218;51.902;9.542;2023-08-06T16:29:44;26.10;1.00
463;DHT22;218;51.902;9.542;2023-08-06T16:32:11;26.10;1.00
463;DHT22;218;51.902;9.542;2023-08-06T16:34:38;25.90;1.00
463;DHT22;218;51.902;9.542;2023-08-06T16:37:05;25.80;1.00
463;DHT22;218;51.902;9.542;2023-08-06T16:39:33;25.70;1.00
463;DHT22;218;51.902;9.542;2023-08-06T16:42:00;25.60;1.00
463;DHT22;218;51.902;9.542;2023-08-06T16:44:29;25.50;1.00
463;DHT22;218;51.902;9.542;2023-08-06T16:46:58;25.40;1.00
463;DHT22;218;51.902;9.542;2023-08-06T16:49:25;25.30;1.00
463;DHT22;218;51.902;9.542;2023-08-06T16:51:52;25.20;1.00
463;DHT22;218;51.902;9.542;2023-08-06T16:54:19;25.10;1.00
463;DHT22;218;51.902;9.542;2023-08-06T16:56:46;25.10;1.00
463;DHT22;218;51.902;9.542;2023-08-06T16:59:13;25.00;1.00
463;DHT22;218;51.902;9.542;2023-08-06T17:01:40;24.90;1.00
463;DHT22;218;51.902;9.542;2023-08-06T17:04:08;24.80;1.00
463;DHT22;218;51.902;9.542;2023-08-06T17:06:35;24.70;1.00
463;DHT22;218;51.902;9.542;2023-08-06T17:09:02;24.70;1.00
463;DHT22;218;51.902;9.542;2023-08-06T17:11:30;24.60;1.00
463;DHT22;218;51.902;9.542;2023-08-06T17:13:57;24.50;1.00
463;DHT22;218;51.902;9.542;2023-08-06T17:16:26;24.40;1.00
463;DHT22;218;51.902;9.542;2023-08-06T17:18:52;24.40;1.00
463;DHT22;218;51.902;9.542;2023-08-06T17:21:21;24.30;1.00
463;DHT22;218;51.902;9.542;2023-08-06T17:23:48;24.20;1.00
463;DHT22;218;51.902;9.542;2023-08-06T17:26:14;24.20;1.00
463;DHT22;218;51.902;9.542;2023-08-06T17:28:41;24.20;1.00
463;DHT22;218;51.902;9.542;2023-08-06T17:31:09;24.20;1.00
463;DHT22;218;51.902;9.542;2023-08-06T17:33:37;24.10;1.00
463;DHT22;218;51.902;9.542;2023-08-06T17:36:04;24.00;1.00
463;DHT22;218;51.902;9.542;2023-08-06T17:38:32;24.00;1.00
463;DHT22;218;51.902;9.542;2023-08-06T17:40:59;24.00;1.00
463;DHT22;218;51.902;9.542;2023-08-06T17:43:29;24.00;1.00
463;DHT22;218;51.902;9.542;2023-08-06T17:45:56;23.90;1.00
463;DHT22;218;51.902;9.542;2023-08-06T17:48:23;23.90;1.00
463;DHT22;218;51.902;9.542;2023-08-06T17:50:50;23.90;1.00
463;DHT22;218;51.902;9.542;2023-08-06T17:53:17;23.80;1.00
463;DHT22;218;51.902;9.542;2023-08-06T17:55:45;23.80;1.00
463;DHT22;218;51.902;9.542;2023-08-06T17:58:12;23.80;1.00
463;DHT22;218;51.902;9.542;2023-08-06T18:00:39;23.80;1.00
463;DHT22;218;51.902;9.542;2023-08-06T18:03:08;23.80;1.00
463;DHT22;218;51.902;9.542;2023-08-06T18:05:35;23.70;1.00
463;DHT22;218;51.902;9.542;2023-08-06T18:08:02;23.70;1.00
463;DHT22;218;51.902;9.542;2023-08-06T18:10:29;23.70;1.00
463;DHT22;218;51.902;9.542;2023-08-06T18:12:57;23.70;1.00
463;DHT22;218;51.902;9.542;2023-08-06T18:15:24;23.60;1.00
463;DHT22;218;51.902;9.542;2023-08-06T18:17:52;23.60;1.00
463;DHT22;218;51.902;9.542;2023-08-06T18:20:19;23.50;1.00
463;DHT22;218;51.902;9.542;2023-08-06T18:22:46;23.50;1.00
463;DHT22;218;51.902;9.542;2023-08-06T18:25:13;23.40;1.00
463;DHT22;218;51.902;9.542;2023-08-06T18:27:40;23.40;1.00
463;DHT22;218;51.902;9.542;2023-08-06T18:30:10;23.30;1.00
463;DHT22;218;51.902;9.542;2023-08-06T18:32:37;23.30;1.00
463;DHT22;218;51.902;9.542;2023-08-06T18:35:05;23.30;1.00
463;DHT22;218;51.902;9.542;2023-08-06T18:37:32;23.30;1.00
463;DHT22;218;51.902;9.542;2023-08-06T18:40:00;23.20;1.00
463;DHT22;218;51.902;9.542;2023-08-06T18:42:27;23.20;1.00
463;DHT22;218;51.902;9.542;2023-08-06T18:44:55;23.20;1.00
463;DHT22;218;51.902;9.542;2023-08-06T18:47:24;23.10;1.00
463;DHT22;218;51.902;9.542;2023-08-06T18:49:51;23.10;1.00
463;DHT22;218;51.902;9.542;2023-08-06T18:54:45;23.10;1.00
463;DHT22;218;51.902;9.542;2023-08-06T18:59:40;23.00;1.00
463;DHT22;218;51.902;9.542;2023-08-06T19:02:06;22.90;1.00
463;DHT22;218;51.902;9.542;2023-08-06T19:04:35;22.90;1.00
463;DHT22;218;51.902;9.542;2023-08-06T19:07:02;22.90;1.00
463;DHT22;218;51.902;9.542;2023-08-06T19:09:32;22.90;1.00
463;DHT22;218;51.902;9.542;2023-08-06T19:11:59;22.90;1.00
463;DHT22;218;51.902;9.542;2023-08-06T19:14:26;22.80;1.00
463;DHT22;218;51.902;9.542;2023-08-06T19:16:53;22.80;1.00
463;DHT22;218;51.902;9.542;2023-08-06T19:19:24;22.70;1.00
463;DHT22;218;51.902;9.542;2023-08-06T19:21:52;22.70;1.00
463;DHT22;218;51.902;9.542;2023-08-06T19:24:19;22.60;1.00
463;DHT22;218;51.902;9.542;2023-08-06T19:26:46;22.60;1.00
463;DHT22;218;51.902;9.542;2023-08-06T19:29:13;22.60;1.00
463;DHT22;218;51.902;9.542;2023-08-06T19:34:10;22.40;1.00
463;DHT22;218;51.902;9.542;2023-08-06T19:36:37;22.40;1.00
463;DHT22;218;51.902;9.542;2023-08-06T19:39:05;22.40;1.00
463;DHT22;218;51.902;9.542;2023-08-06T19:41:32;22.30;1.00
463;DHT22;218;51.902;9.542;2023-08-06T19:43:58;22.30;1.00
463;DHT22;218;51.902;9.542;2023-08-06T19:46:25;22.30;1.00
463;DHT22;218;51.902;9.542;2023-08-06T19:48:52;22.20;1.00
463;DHT22;218;51.902;9.542;2023-08-06T19:51:19;22.20;1.00
463;DHT22;218;51.902;9.542;2023-08-06T19:53:46;22.20;1.00
463;DHT22;218;51.902;9.542;2023-08-06T19:56:15;22.10;1.00
463;DHT22;218;51.902;9.542;2023-08-06T19:58:42;22.00;1.00
463;DHT22;218;51.902;9.542;2023-08-06T20:01:09;22.00;1.00
463;DHT22;218;51.902;9.542;2023-08-06T20:03:36;21.90;1.00
463;DHT22;218;51.902;9.542;2023-08-06T20:06:08;21.90;1.00
463;DHT22;218;51.902;9.542;2023-08-06T20:08:35;21.80;1.00
463;DHT22;218;51.902;9.542;2023-08-06T20:11:02;21.90;1.00
463;DHT22;218;51.902;9.542;2023-08-06T20:15:58;21.80;1.00
463;DHT22;218;51.902;9.542;2023-08-06T20:18:26;21.60;1.00
463;DHT22;218;51.902;9.542;2023-08-06T20:20:53;21.60;1.00
463;DHT22;218;51.902;9.542;2023-08-06T20:23:20;21.70;1.00
463;DHT22;218;51.902;9.542;2023-08-06T20:25:47;21.50;1.00
463;DHT22;218;51.902;9.542;2023-08-06T20:28:15;21.60;1.00
463;DHT22;218;51.902;9.542;2023-08-06T20:30:43;21.50;1.00
463;DHT22;218;51.902;9.542;2023-08-06T20:33:11;21.50;1.00
463;DHT22;218;51.902;9.542;2023-08-06T20:35:39;21.40;1.00
463;DHT22;218;51.902;9.542;2023-08-06T20:40:35;21.30;1.00
463;DHT22;218;51.902;9.542;2023-08-06T20:43:02;21.40;1.00
463;DHT22;218;51.902;9.542;2023-08-06T20:45:30;21.20;1.00
463;DHT22;218;51.902;9.542;2023-08-06T20:47:58;21.20;1.00
463;DHT22;218;51.902;9.542;2023-08-06T20:50:25;21.20;1.00
463;DHT22;218;51.902;9.542;2023-08-06T20:52:52;21.10;1.00
463;DHT22;218;51.902;9.542;2023-08-06T20:55:25;21.20;1.00
463;DHT22;218;51.902;9.542;2023-08-06T20:57:52;21.10;1.00
463;DHT22;218;51.902;9.542;2023-08-06T21:00:19;21.10;1.00
463;DHT22;218;51.902;9.542;2023-08-06T21:02:46;20.90;1.00
463;DHT22;218;51.902;9.542;2023-08-06T21:05:14;21.10;1.00
463;DHT22;218;51.902;9.542;2023-08-06T21:10:11;20.80;1.00
463;DHT22;218;51.902;9.542;2023-08-06T21:15:06;20.90;1.00
463;DHT22;218;51.902;9.542;2023-08-06T21:20:00;21.00;1.00
463;DHT22;218;51.902;9.542;2023-08-06T21:24:56;20.80;1.00
463;DHT22;218;51.902;9.542;2023-08-06T21:29:50;20.50;1.00
463;DHT22;218;51.902;9.542;2023-08-06T21:32:17;20.80;1.00
463;DHT22;218;51.902;9.542;2023-08-06T21:34:44;20.80;1.00
463;DHT22;218;51.902;9.542;2023-08-06T21:37:11;20.70;1.00
463;DHT22;218;51.902;9.542;2023-08-06T21:44:34;20.50;1.00
463;DHT22;218;51.902;9.542;2023-08-06T21:47:00;20.70;1.00
463;DHT22;218;51.902;9.542;2023-08-06T21:49:27;20.30;1.00
463;DHT22;218;51.902;9.542;2023-08-06T21:51:54;20.70;1.00
463;DHT22;218;51.902;9.542;2023-08-06T21:56:51;20.60;1.00
463;DHT22;218;51.902;9.542;2023-08-06T21:59:18;20.70;1.00
463;DHT22;218;51.902;9.542;2023-08-06T22:01:44;20.60;1.00
463;DHT22;218;51.902;9.542;2023-08-06T22:04:11;20.60;1.00
463;DHT22;218;51.902;9.542;2023-08-06T22:09:05;20.60;1.00
463;DHT22;218;51.902;9.542;2023-08-06T22:14:01;20.70;1.00
463;DHT22;218;51.902;9.542;2023-08-06T22:16:28;20.50;1.00
463;DHT22;218;51.902;9.542;2023-08-06T22:18:55;20.60;1.00
463;DHT22;218;51.902;9.542;2023-08-06T22:26:16;20.50;1.00
463;DHT22;218;51.902;9.542;2023-08-06T22:28:43;20.60;1.00
463;DHT22;218;51.902;9.542;2023-08-06T22:31:11;20.70;1.00
463;DHT22;218;51.902;9.542;2023-08-06T22:36:08;20.60;1.00
463;DHT22;218;51.902;9.542;2023-08-06T22:38:35;20.20;1.00
463;DHT22;218;51.902;9.542;2023-08-06T22:45:56;20.50;1.00
463;DHT22;218;51.902;9.542;2023-08-06T22:48:24;20.40;1.00
463;DHT22;218;51.902;9.542;2023-08-06T22:50:51;20.60;1.00
463;DHT22;218;51.902;9.542;2023-08-06T22:53:18;20.50;1.00
463;DHT22;218;51.902;9.542;2023-08-06T22:58:13;20.30;1.00
463;DHT22;218;51.902;9.542;2023-08-06T23:00:40;20.40;1.00
463;DHT22;218;51.902;9.542;2023-08-06T23:03:07;20.20;1.00
463;DHT22;218;51.902;9.542;2023-08-06T23:05:35;20.50;1.00
463;DHT22;218;51.902;9.542;2023-08-06T23:10:29;20.30;1.00
463;DHT22;218;51.902;9.542;2023-08-06T23:15:23;20.70;1.00
463;DHT22;218;51.902;9.542;2023-08-06T23:17:50;20.30;1.00
463;DHT22;218;51.902;9.542;2023-08-06T23:20:17;20.30;1.00
463;DHT22;218;51.902;9.542;2023-08-06T23:22:46;20.70;1.00
463;DHT22;218;51.902;9.542;2023-08-06T23:25:13;20.30;1.00
463;DHT22;218;51.902;9.542;2023-08-06T23:27:40;20.60;1.00
463;DHT22;218;51.902;9.542;2023-08-06T23:30:07;20.30;1.00
463;DHT22;218;51.902;9.542;2023-08-06T23:37:29;20.10;1.00
463;DHT22;218;51.902;9.542;2023-08-06T23:40:00;20.30;1.00
463;DHT22;218;51.902;9.542;2023-08-06T23:42:27;20.30;1.00
463;DHT22;218;51.902;9.542;2023-08-06T23:44:55;20.60;1.00
463;DHT22;218;51.902;9.542;2023-08-06T23:47:22;20.50;1.00
463;DHT22;218;51.902;9.542;2023-08-06T23:49:49;20.00;1.00
463;DHT22;218;51.902;9.542;2023-08-06T23:54:43;20.60;1.00
463;DHT22;218;51.902;9.542;2023-08-06T23:57:11;20.20;1.00
